createdAt,value
2018-07-12T00:01:19.022Z,93.50
2018-07-12T00:03:46.204Z,93.60
2018-07-12T00:11:08.330Z,94.00
2018-07-12T00:13:35.518Z,94.10
2018-07-12T00:16:02.719Z,94.20
2018-07-12T00:18:29.909Z,94.30
2018-07-12T00:20:57.110Z,94.50
2018-07-12T00:23:24.307Z,94.50
2018-07-12T00:25:51.495Z,94.60
2018-07-12T00:28:18.699Z,94.80
2018-07-12T00:30:45.952Z,94.90
2018-07-12T00:33:13.154Z,95.10
2018-07-12T00:35:40.338Z,95.20
2018-07-12T00:38:07.530Z,95.30
2018-07-12T00:45:29.636Z,95.80
2018-07-12T00:47:56.818Z,95.90
2018-07-12T00:50:24.022Z,96.00
2018-07-12T00:52:51.228Z,96.10
2018-07-12T00:55:18.438Z,96.10
2018-07-12T00:57:45.629Z,96.20
2018-07-12T01:00:12.820Z,96.10
2018-07-12T01:02:40.027Z,96.40
2018-07-12T01:05:07.207Z,96.10
2018-07-12T01:07:34.429Z,95.90
2018-07-12T01:10:01.629Z,95.70
2018-07-12T01:12:28.798Z,95.60
2018-07-12T01:14:56.211Z,95.40
2018-07-12T01:17:23.405Z,95.40
2018-07-12T01:19:50.611Z,95.20
2018-07-12T01:22:17.835Z,95.10
2018-07-12T01:24:44.995Z,95.10
2018-07-12T01:27:12.182Z,94.80
2018-07-12T01:29:39.383Z,94.60
2018-07-12T01:32:06.562Z,94.40
2018-07-12T01:34:33.766Z,94.30
2018-07-12T01:37:01.149Z,94.10
2018-07-12T01:39:28.350Z,93.90
2018-07-12T01:41:55.553Z,93.90
2018-07-12T01:44:22.755Z,94.20
2018-07-12T01:46:49.945Z,95.00
2018-07-12T01:49:17.133Z,95.10
2018-07-12T01:51:44.335Z,95.30
2018-07-12T01:54:11.510Z,95.80
2018-07-12T01:56:38.714Z,96.50
2018-07-12T01:59:06.118Z,97.00
2018-07-12T02:01:33.307Z,97.50
2018-07-12T02:04:00.507Z,97.90
2018-07-12T02:06:27.714Z,98.20
2018-07-12T02:08:54.894Z,98.70
2018-07-12T02:11:22.081Z,99.20
2018-07-12T02:13:49.321Z,99.70
2018-07-12T02:16:16.519Z,99.90
2018-07-12T02:18:43.711Z,99.90
2018-07-12T02:21:11.084Z,99.90
2018-07-12T02:23:38.314Z,99.90
2018-07-12T02:26:05.494Z,99.90
2018-07-12T02:28:32.697Z,99.90
2018-07-12T02:30:59.887Z,99.90
2018-07-12T02:33:27.086Z,99.90
2018-07-12T02:35:54.286Z,99.90
2018-07-12T02:38:21.482Z,99.90
2018-07-12T02:40:48.680Z,99.90
2018-07-12T02:43:16.035Z,99.90
2018-07-12T02:45:43.230Z,99.90
2018-07-12T02:48:10.435Z,99.90
2018-07-12T02:50:37.645Z,99.90
2018-07-12T02:53:04.849Z,99.90
2018-07-12T02:55:32.041Z,99.90
2018-07-12T02:57:59.232Z,99.90
2018-07-12T03:00:26.414Z,99.90
2018-07-12T03:02:53.610Z,99.90
2018-07-12T03:05:21.011Z,99.90
2018-07-12T03:07:48.258Z,99.90
2018-07-12T03:10:15.449Z,99.90
2018-07-12T03:20:05.002Z,99.90
2018-07-12T03:22:32.198Z,99.90
2018-07-12T03:24:59.394Z,99.90
2018-07-12T03:27:26.608Z,99.90
2018-07-12T03:29:53.867Z,99.90
2018-07-12T03:37:16.023Z,99.90
2018-07-12T03:39:43.246Z,99.90
2018-07-12T03:42:10.446Z,99.90
2018-07-12T03:44:37.644Z,99.90
2018-07-12T03:47:04.869Z,99.90
2018-07-12T03:56:54.423Z,99.90
2018-07-12T03:59:21.634Z,99.90
2018-07-12T04:01:48.834Z,99.90
2018-07-12T04:04:16.036Z,99.90
2018-07-12T04:06:43.246Z,99.90
2018-07-12T04:09:10.430Z,99.90
2018-07-12T04:14:05.115Z,99.90
2018-07-12T04:16:32.310Z,99.90
2018-07-12T04:18:59.528Z,99.90
2018-07-12T04:21:26.708Z,99.90
2018-07-12T04:23:53.923Z,99.90
2018-07-12T04:26:21.127Z,99.90
2018-07-12T04:28:48.337Z,99.90
2018-07-12T04:31:15.550Z,99.90
2018-07-12T04:33:42.778Z,99.90
2018-07-12T04:36:09.974Z,99.90
2018-07-12T04:38:37.183Z,99.90
2018-07-12T04:41:04.376Z,99.90
2018-07-12T04:43:31.585Z,99.90
2018-07-12T04:45:58.780Z,99.90
2018-07-12T04:48:25.958Z,99.90
2018-07-12T04:50:53.154Z,99.90
2018-07-12T04:53:20.422Z,99.90
2018-07-12T04:55:47.690Z,99.90
2018-07-12T04:58:14.945Z,99.90
2018-07-12T05:00:42.078Z,99.90
2018-07-12T05:03:09.275Z,99.90
2018-07-12T05:05:36.474Z,99.90
2018-07-12T05:08:03.729Z,99.90
2018-07-12T05:10:31.519Z,99.90
2018-07-12T05:12:59.096Z,99.90
2018-07-12T05:17:53.883Z,99.90
2018-07-12T05:20:21.259Z,99.90
2018-07-12T05:22:48.486Z,99.90
2018-07-12T05:25:15.675Z,99.90
2018-07-12T05:27:42.881Z,99.90
2018-07-12T05:30:10.072Z,99.90
2018-07-12T05:32:37.270Z,99.90
2018-07-12T05:35:04.867Z,99.90
2018-07-12T05:37:33.087Z,99.70
2018-07-12T05:40:01.505Z,99.40
2018-07-12T05:42:29.710Z,99.10
2018-07-12T05:44:57.931Z,98.80
2018-07-12T05:47:26.169Z,99.20
2018-07-12T05:49:54.390Z,98.30
2018-07-12T05:52:22.627Z,97.90
2018-07-12T05:54:50.854Z,97.20
2018-07-12T05:57:19.098Z,97.00
2018-07-12T05:59:47.302Z,96.70
2018-07-12T06:02:18.491Z,96.50
2018-07-12T06:04:46.833Z,96.20
2018-07-12T06:07:19.282Z,95.50
2018-07-12T06:09:47.695Z,95.20
2018-07-12T06:12:15.920Z,94.30
2018-07-12T06:14:44.102Z,94.80
2018-07-12T06:17:12.319Z,94.70
2018-07-12T06:19:40.526Z,93.70
2018-07-12T06:22:08.727Z,92.80
2018-07-12T06:24:37.005Z,92.80
2018-07-12T06:27:05.179Z,92.20
2018-07-12T06:29:33.386Z,91.10
2018-07-12T06:32:01.575Z,90.70
2018-07-12T06:34:29.790Z,90.50
2018-07-12T06:36:58.615Z,89.80
2018-07-12T06:39:26.802Z,90.00
2018-07-12T06:41:55.048Z,90.10
2018-07-12T06:44:23.346Z,89.90
2018-07-12T06:46:51.547Z,88.80
2018-07-12T06:49:19.757Z,87.90
2018-07-12T06:51:47.978Z,87.70
2018-07-12T06:54:16.338Z,87.60
2018-07-12T06:56:44.543Z,87.40
2018-07-12T07:01:40.733Z,87.30
2018-07-12T07:04:09.040Z,86.00
2018-07-12T07:06:37.556Z,83.70
2018-07-12T07:09:07.697Z,83.60
2018-07-12T07:11:35.974Z,86.00
2018-07-12T07:14:04.275Z,84.10
2018-07-12T07:16:32.494Z,80.50
2018-07-12T07:19:00.720Z,81.50
2018-07-12T07:21:28.937Z,80.70
2018-07-12T07:23:57.131Z,81.40
2018-07-12T07:26:25.409Z,82.00
2018-07-12T07:28:53.858Z,83.20
2018-07-12T07:31:22.127Z,82.50
2018-07-12T07:33:50.507Z,80.30
2018-07-12T07:36:19.022Z,82.50
2018-07-12T07:38:47.287Z,82.50
2018-07-12T07:41:15.518Z,80.90
2018-07-12T07:43:43.807Z,80.30
2018-07-12T07:46:12.018Z,78.80
2018-07-12T07:48:40.341Z,77.30
2018-07-12T07:51:09.067Z,75.40
2018-07-12T07:53:38.135Z,73.00
2018-07-12T07:56:06.419Z,73.50
2018-07-12T07:58:34.675Z,73.30
2018-07-12T08:01:02.958Z,72.90
2018-07-12T08:03:31.263Z,73.20
2018-07-12T08:05:59.468Z,71.70
2018-07-12T08:10:56.346Z,72.30
2018-07-12T08:13:24.744Z,71.20
2018-07-12T08:15:53.347Z,72.10
2018-07-12T08:18:21.709Z,73.10
2018-07-12T08:20:49.952Z,74.40
2018-07-12T08:23:18.186Z,74.30
2018-07-12T08:25:46.566Z,74.10
2018-07-12T08:28:27.234Z,73.10
2018-07-12T08:30:55.916Z,72.70
2018-07-12T08:33:24.808Z,73.30
2018-07-12T08:35:53.038Z,72.60
2018-07-12T08:38:21.417Z,72.20
2018-07-12T08:40:49.781Z,71.10
2018-07-12T08:43:18.130Z,71.10
2018-07-12T08:45:46.426Z,71.90
2018-07-12T08:53:11.041Z,70.10
2018-07-12T08:55:39.577Z,70.30
2018-07-12T08:58:08.044Z,67.50
2018-07-12T09:00:39.111Z,66.20
2018-07-12T09:03:14.203Z,67.00
2018-07-12T09:05:42.857Z,66.00
2018-07-12T09:08:11.342Z,66.30
2018-07-12T09:10:39.721Z,66.40
2018-07-12T09:13:08.347Z,65.30
2018-07-12T09:15:36.685Z,64.30
2018-07-12T09:18:05.082Z,64.00
2018-07-12T09:20:34.875Z,62.70
2018-07-12T09:23:03.267Z,61.50
2018-07-12T09:25:32.242Z,60.10
2018-07-12T09:28:00.567Z,58.60
2018-07-12T09:30:28.964Z,58.20
2018-07-12T09:32:57.284Z,58.80
2018-07-12T09:35:25.616Z,58.00
2018-07-12T09:37:54.288Z,57.10
2018-07-12T09:40:22.690Z,57.10
2018-07-12T09:42:51.156Z,54.90
2018-07-12T09:45:19.464Z,53.90
2018-07-12T09:47:48.551Z,52.40
2018-07-12T09:50:16.898Z,51.00
2018-07-12T09:52:45.223Z,50.50
2018-07-12T09:55:13.676Z,50.00
2018-07-12T09:57:53.221Z,49.00
2018-07-12T10:00:25.799Z,49.00
2018-07-12T10:02:59.403Z,49.00
2018-07-12T10:05:33.138Z,49.00
2018-07-12T10:08:06.765Z,49.20
2018-07-12T10:10:39.379Z,50.10
2018-07-12T10:13:12.993Z,50.00
2018-07-12T10:15:43.614Z,49.80
2018-07-12T10:18:17.422Z,49.70
2018-07-12T10:20:45.736Z,49.60
2018-07-12T10:23:14.004Z,50.60
2018-07-12T10:25:42.236Z,50.50
2018-07-12T10:28:10.514Z,51.00
2018-07-12T10:30:38.792Z,50.70
2018-07-12T10:33:07.094Z,50.10
2018-07-12T10:35:35.367Z,50.50
2018-07-12T10:38:03.646Z,51.00
2018-07-12T10:40:32.225Z,51.30
2018-07-12T10:43:00.616Z,49.70
2018-07-12T10:45:28.840Z,48.20
2018-07-12T10:47:57.118Z,47.20
2018-07-12T10:50:25.355Z,46.80
2018-07-12T10:52:53.790Z,48.00
2018-07-12T10:55:22.111Z,48.50
2018-07-12T10:57:50.438Z,48.20
2018-07-12T11:00:18.775Z,46.90
2018-07-12T11:02:48.835Z,44.70
2018-07-12T11:05:17.154Z,43.70
2018-07-12T11:07:45.572Z,43.60
2018-07-12T11:10:14.811Z,43.60
2018-07-12T11:12:43.693Z,43.50
2018-07-12T11:15:11.986Z,43.20
2018-07-12T11:17:40.302Z,42.60
2018-07-12T11:20:09.338Z,42.50
2018-07-12T11:22:37.647Z,42.50
2018-07-12T11:25:06.035Z,42.60
2018-07-12T11:27:35.295Z,43.70
2018-07-12T11:30:03.783Z,44.80
2018-07-12T11:32:32.070Z,45.60
2018-07-12T11:35:00.769Z,45.90
2018-07-12T11:37:29.116Z,43.90
2018-07-12T11:39:57.600Z,42.70
2018-07-12T11:42:26.209Z,38.90
2018-07-12T11:44:54.500Z,34.80
2018-07-12T11:47:22.951Z,32.40
2018-07-12T11:49:51.383Z,29.90
2018-07-12T11:52:19.775Z,29.30
2018-07-12T11:54:48.242Z,28.90
2018-07-12T12:02:12.823Z,29.70
2018-07-12T12:04:42.006Z,29.50
2018-07-12T12:07:10.788Z,28.30
2018-07-12T12:09:39.394Z,27.40
2018-07-12T12:12:08.613Z,26.20
2018-07-12T12:14:37.691Z,24.90
2018-07-12T12:17:06.086Z,23.40
2018-07-12T12:19:35.276Z,22.70
2018-07-12T12:22:04.608Z,22.40
2018-07-12T12:24:32.978Z,21.90
2018-07-12T12:27:01.332Z,22.10
2018-07-12T12:29:29.691Z,22.50
2018-07-12T12:31:58.798Z,21.90
2018-07-12T12:34:28.432Z,22.00
2018-07-12T12:36:56.851Z,22.50
2018-07-12T12:39:25.263Z,23.40
2018-07-12T12:41:53.784Z,23.40
2018-07-12T12:44:22.817Z,23.40
2018-07-12T12:46:52.427Z,22.90
2018-07-12T12:49:20.869Z,22.60
2018-07-12T12:54:17.514Z,20.40
2018-07-12T12:56:46.613Z,20.30
2018-07-12T12:59:15.736Z,20.60
2018-07-12T13:01:44.125Z,20.60
2018-07-12T13:04:13.543Z,20.10
2018-07-12T13:06:42.020Z,19.70
2018-07-12T13:09:10.924Z,19.60
2018-07-12T13:11:39.239Z,20.90
2018-07-12T13:14:08.168Z,21.70
2018-07-12T13:16:39.530Z,21.00
2018-07-12T13:19:07.903Z,20.40
2018-07-12T13:21:36.558Z,19.50
2018-07-12T13:26:32.799Z,19.80
2018-07-12T13:29:01.056Z,20.20
2018-07-12T13:31:29.374Z,20.40
2018-07-12T13:33:58.251Z,20.10
2018-07-12T13:36:27.271Z,19.30
2018-07-12T13:38:55.601Z,18.40
2018-07-12T13:41:24.579Z,18.10
2018-07-12T13:44:04.121Z,17.70
2018-07-12T13:46:32.491Z,17.20
2018-07-12T13:49:00.834Z,17.00
2018-07-12T13:51:29.151Z,16.80
2018-07-12T13:53:57.679Z,16.70
2018-07-12T13:56:25.995Z,16.60
2018-07-12T13:58:59.618Z,16.60
2018-07-12T14:01:31.406Z,16.80
2018-07-12T14:03:59.833Z,16.60
2018-07-12T14:06:28.606Z,16.90
2018-07-12T14:08:56.827Z,16.80
2018-07-12T14:11:25.088Z,16.80
2018-07-12T14:13:53.386Z,17.00
2018-07-12T14:18:50.931Z,16.20
2018-07-12T14:21:19.350Z,16.20
2018-07-12T14:23:47.627Z,16.10
2018-07-12T14:26:15.926Z,15.80
2018-07-12T14:28:44.516Z,15.60
2018-07-12T14:31:12.731Z,15.90
2018-07-12T14:33:40.990Z,15.90
2018-07-12T14:36:09.251Z,16.20
2018-07-12T14:38:37.515Z,16.20
2018-07-12T14:41:06.077Z,16.10
2018-07-12T14:43:34.366Z,16.20
2018-07-12T14:46:02.574Z,17.10
2018-07-12T14:48:30.846Z,16.60
2018-07-12T14:50:59.093Z,16.60
2018-07-12T14:53:27.392Z,16.40
2018-07-12T14:55:55.716Z,16.60
2018-07-12T14:58:25.678Z,17.00
2018-07-12T15:00:54.236Z,16.90
2018-07-12T15:03:22.802Z,17.20
2018-07-12T15:08:18.983Z,16.20
2018-07-12T15:10:47.580Z,15.70
2018-07-12T15:13:15.800Z,15.90
2018-07-12T15:15:44.074Z,16.00
2018-07-12T15:20:40.362Z,15.60
2018-07-12T15:23:08.591Z,15.80
2018-07-12T15:28:05.082Z,15.80
2018-07-12T15:30:33.299Z,15.60
2018-07-12T15:33:01.566Z,15.60
2018-07-12T15:35:29.886Z,15.30
2018-07-12T15:37:58.101Z,15.20
2018-07-12T15:40:26.342Z,15.00
2018-07-12T15:42:54.640Z,14.90
2018-07-12T15:45:22.902Z,15.00
2018-07-12T15:47:51.218Z,14.80
2018-07-12T15:50:23.515Z,14.90
2018-07-12T15:55:20.042Z,15.00
2018-07-12T15:57:48.914Z,14.90
2018-07-12T16:00:17.462Z,14.90
2018-07-12T16:02:45.763Z,15.10
2018-07-12T16:05:13.995Z,15.30
2018-07-12T16:07:42.289Z,15.50
2018-07-12T16:10:10.728Z,15.50
2018-07-12T16:12:38.989Z,15.40
2018-07-12T16:15:07.269Z,15.30
2018-07-12T16:17:35.543Z,15.40
2018-07-12T16:20:03.831Z,15.50
2018-07-12T16:22:32.081Z,15.70
2018-07-12T16:25:00.306Z,15.70
2018-07-12T16:29:56.544Z,16.30
2018-07-12T16:32:24.986Z,17.70
2018-07-12T16:34:53.232Z,19.50
2018-07-12T16:37:21.486Z,20.60
2018-07-12T16:42:17.739Z,19.30
2018-07-12T16:44:45.969Z,18.40
2018-07-12T16:47:14.267Z,17.80
2018-07-12T16:49:42.680Z,17.20
2018-07-12T16:52:10.979Z,16.70
2018-07-12T16:54:39.423Z,17.20
2018-07-12T16:57:07.584Z,17.40
2018-07-12T16:59:35.887Z,17.20
2018-07-12T17:02:04.098Z,17.00
2018-07-12T17:04:32.677Z,16.70
2018-07-12T17:07:00.946Z,16.70
2018-07-12T17:09:29.238Z,16.60
2018-07-12T17:11:57.595Z,16.60
2018-07-12T17:14:25.829Z,16.50
2018-07-12T17:16:54.321Z,16.60
2018-07-12T17:19:22.548Z,17.20
2018-07-12T17:22:00.355Z,18.50
2018-07-12T17:24:29.699Z,20.40
2018-07-12T17:26:59.651Z,22.90
2018-07-12T17:32:11.345Z,26.30
2018-07-12T17:34:55.017Z,28.10
2018-07-12T17:37:23.494Z,29.30
2018-07-12T17:39:51.829Z,30.30
2018-07-12T17:44:49.243Z,32.80
2018-07-12T17:47:17.540Z,33.80
2018-07-12T17:49:45.754Z,34.80
2018-07-12T17:52:13.991Z,35.40
2018-07-12T17:54:42.216Z,36.10
2018-07-12T17:57:10.423Z,36.80
2018-07-12T17:59:38.890Z,37.40
2018-07-12T18:02:07.210Z,38.00
2018-07-12T18:07:03.423Z,38.70
2018-07-12T18:09:31.628Z,38.70
2018-07-12T18:11:59.880Z,39.00
2018-07-12T18:14:28.217Z,39.10
2018-07-12T18:16:56.346Z,39.00
2018-07-12T18:19:24.825Z,39.30
2018-07-12T18:21:53.229Z,39.70
2018-07-12T18:24:21.382Z,40.20
2018-07-12T18:26:49.607Z,40.50
2018-07-12T18:29:17.824Z,41.50
2018-07-12T18:31:46.043Z,40.90
2018-07-12T18:34:14.251Z,41.50
2018-07-12T18:36:42.515Z,41.70
2018-07-12T18:39:10.726Z,41.80
2018-07-12T18:41:39.050Z,42.10
2018-07-12T18:44:07.265Z,42.50
2018-07-12T18:46:35.503Z,42.60
2018-07-12T18:49:03.808Z,43.10
2018-07-12T18:51:32.010Z,44.00
2018-07-12T18:54:00.236Z,44.50
2018-07-12T18:56:29.331Z,44.70
2018-07-12T18:58:57.542Z,44.70
2018-07-12T19:01:25.784Z,45.00
2018-07-12T19:03:53.984Z,45.60
2018-07-12T19:06:22.537Z,45.70
2018-07-12T19:08:50.770Z,46.00
2018-07-12T19:11:18.987Z,46.20
2018-07-12T19:13:47.872Z,46.40
2018-07-12T19:16:16.680Z,46.80
2018-07-12T19:18:44.842Z,47.00
2018-07-12T19:21:13.067Z,47.10
2018-07-12T19:23:41.290Z,47.50
2018-07-12T19:26:09.573Z,47.70
2018-07-12T19:28:38.269Z,48.10
2018-07-12T19:31:06.432Z,48.20
2018-07-12T19:33:34.683Z,48.40
2018-07-12T19:36:02.990Z,48.50
2018-07-12T19:38:31.303Z,48.80
2018-07-12T19:40:59.911Z,48.90
2018-07-12T19:43:28.256Z,49.20
2018-07-12T19:45:56.549Z,49.50
2018-07-12T19:48:24.779Z,49.80
2018-07-12T19:50:53.199Z,50.20
2018-07-12T19:53:21.430Z,50.30
2018-07-12T19:55:49.679Z,50.60
2018-07-12T19:58:17.923Z,50.80
2018-07-12T20:00:46.114Z,50.80
2018-07-12T20:03:14.350Z,50.80
2018-07-12T20:05:42.574Z,50.90
2018-07-12T20:08:10.818Z,51.10
2018-07-12T20:10:39.726Z,51.40
2018-07-12T20:13:07.989Z,51.60
2018-07-12T20:15:36.638Z,51.50
2018-07-12T20:18:04.860Z,51.70
2018-07-12T20:20:33.104Z,51.90
2018-07-12T20:25:29.262Z,52.20
2018-07-12T20:27:57.462Z,52.30
2018-07-12T20:30:25.687Z,52.40
2018-07-12T20:32:53.930Z,52.30
2018-07-12T20:35:22.155Z,52.20
2018-07-12T20:37:50.379Z,52.10
2018-07-12T20:40:18.587Z,52.00
2018-07-12T20:42:46.810Z,51.80
2018-07-12T20:45:15.015Z,51.70
2018-07-12T20:47:43.311Z,51.70
2018-07-12T20:50:11.547Z,51.30
2018-07-12T20:52:39.795Z,51.50
2018-07-12T20:55:08.102Z,53.40
2018-07-12T20:57:36.328Z,54.80
2018-07-12T21:00:04.575Z,55.10
2018-07-12T21:02:32.790Z,55.10
2018-07-12T21:05:01.016Z,55.40
2018-07-12T21:07:29.230Z,55.80
2018-07-12T21:09:57.438Z,56.40
2018-07-12T21:12:25.640Z,56.90
2018-07-12T21:14:53.852Z,57.00
2018-07-12T21:17:22.067Z,57.00
2018-07-12T21:22:18.282Z,57.90
2018-07-12T21:24:46.517Z,58.40
2018-07-12T21:27:14.738Z,58.50
2018-07-12T21:29:42.965Z,59.10
2018-07-12T21:32:11.214Z,59.60
2018-07-12T21:34:39.467Z,61.00
2018-07-12T21:37:07.675Z,61.50
2018-07-12T21:39:35.878Z,62.20
2018-07-12T21:42:04.377Z,62.40
2018-07-12T21:44:32.697Z,63.50
2018-07-12T21:47:00.810Z,65.20
2018-07-12T21:49:29.010Z,66.70
2018-07-12T21:51:57.284Z,68.10
2018-07-12T21:54:25.432Z,70.10
2018-07-12T21:56:53.674Z,71.40
2018-07-12T21:59:21.896Z,71.10
2018-07-12T22:01:50.116Z,71.60
2018-07-12T22:08:53.319Z,72.50
2018-07-12T22:11:21.546Z,73.20
2018-07-12T22:13:49.961Z,74.70
2018-07-12T22:16:18.186Z,75.80
2018-07-12T22:18:46.390Z,76.10
2018-07-12T22:21:14.702Z,76.60
2018-07-12T22:23:42.857Z,78.20
2018-07-12T22:26:12.143Z,79.50
2018-07-12T22:28:40.369Z,80.50
2018-07-12T22:31:08.571Z,81.90
2018-07-12T22:33:36.767Z,83.10
2018-07-12T22:36:05.062Z,84.40
2018-07-12T22:38:33.300Z,85.90
2018-07-12T22:41:01.490Z,87.30
2018-07-12T22:43:29.691Z,88.40
2018-07-12T22:45:57.911Z,90.10
2018-07-12T22:48:26.343Z,90.90
2018-07-12T22:50:54.328Z,91.40
2018-07-12T22:53:22.549Z,91.90
2018-07-12T22:55:50.751Z,92.40
2018-07-12T22:58:18.948Z,92.80
2018-07-12T23:00:47.178Z,93.20
2018-07-12T23:03:15.394Z,93.60
2018-07-12T23:05:43.594Z,93.90
2018-07-12T23:08:11.817Z,94.40
2018-07-12T23:10:40.182Z,95.00
2018-07-12T23:13:08.399Z,95.60
2018-07-12T23:15:36.631Z,96.10
2018-07-12T23:18:04.852Z,96.30
2018-07-12T23:20:33.056Z,96.20
2018-07-12T23:23:01.287Z,96.30
2018-07-12T23:25:29.543Z,96.20
2018-07-12T23:30:25.654Z,96.70
2018-07-12T23:32:53.887Z,96.90
2018-07-12T23:35:22.077Z,97.10
2018-07-12T23:40:18.243Z,97.50
2018-07-12T23:42:46.454Z,97.80
2018-07-12T23:45:14.724Z,98.10
2018-07-12T23:47:42.898Z,98.60
2018-07-12T23:50:11.104Z,98.60
2018-07-12T23:52:39.590Z,98.80
2018-07-12T23:55:07.810Z,98.90
2018-07-12T23:57:36.007Z,99.00
